createdAt,value
2018-07-12T00:00:15.419Z,15.46
2018-07-12T00:01:15.338Z,15.39
2018-07-12T00:02:15.533Z,15.46
2018-07-12T00:03:15.395Z,15.45
2018-07-12T00:04:15.403Z,15.38
2018-07-12T00:05:15.313Z,15.28
2018-07-12T00:06:15.330Z,15.45
2018-07-12T00:07:15.303Z,15.36
2018-07-12T00:08:15.248Z,15.39
2018-07-12T00:09:15.246Z,15.36
2018-07-12T00:10:15.346Z,15.36
2018-07-12T00:11:15.225Z,15.35
2018-07-12T00:12:15.208Z,15.33
2018-07-12T00:13:15.339Z,15.36
2018-07-12T00:14:15.296Z,15.31
2018-07-12T00:15:15.166Z,15.42
2018-07-12T00:16:15.158Z,15.31
2018-07-12T00:17:15.258Z,15.33
2018-07-12T00:18:15.166Z,15.33
2018-07-12T00:19:15.178Z,15.27
2018-07-12T00:20:15.196Z,15.36
2018-07-12T00:21:15.098Z,15.31
2018-07-12T00:22:15.086Z,15.33
2018-07-12T00:23:15.265Z,15.35
2018-07-12T00:24:15.065Z,15.28
2018-07-12T00:25:15.140Z,15.27
2018-07-12T00:26:15.043Z,15.42
2018-07-12T00:27:15.032Z,15.28
2018-07-12T00:28:15.047Z,15.26
2018-07-12T00:29:15.150Z,15.28
2018-07-12T00:30:15.086Z,15.33
2018-07-12T00:31:15.305Z,15.26
2018-07-12T00:32:15.081Z,15.35
2018-07-12T00:33:14.997Z,15.35
2018-07-12T00:34:14.948Z,15.30
2018-07-12T00:35:15.029Z,15.28
2018-07-12T00:36:15.422Z,15.28
2018-07-12T00:37:15.545Z,15.35
2018-07-12T00:38:15.605Z,15.31
2018-07-12T00:39:15.610Z,15.33
2018-07-12T00:40:14.975Z,15.38
2018-07-12T00:41:15.012Z,15.39
2018-07-12T00:42:15.308Z,15.36
2018-07-12T00:43:14.905Z,15.33
2018-07-12T00:44:15.071Z,15.45
2018-07-12T00:45:14.841Z,15.38
2018-07-12T00:46:14.812Z,15.43
2018-07-12T00:47:14.804Z,15.38
2018-07-12T00:48:14.891Z,15.43
2018-07-12T00:49:15.380Z,15.36
2018-07-12T00:50:14.883Z,15.30
2018-07-12T00:51:14.756Z,15.36
2018-07-12T00:52:14.841Z,15.35
2018-07-12T00:53:15.356Z,15.33
2018-07-12T00:54:14.801Z,15.38
2018-07-12T00:55:15.398Z,15.30
2018-07-12T00:56:14.775Z,15.38
2018-07-12T00:57:16.802Z,15.35
2018-07-12T00:58:14.726Z,15.41
2018-07-12T00:59:14.976Z,15.35
2018-07-12T01:00:14.957Z,15.36
2018-07-12T01:01:14.665Z,15.30
2018-07-12T01:02:14.632Z,15.26
2018-07-12T01:03:14.615Z,15.23
2018-07-12T01:04:14.606Z,15.24
2018-07-12T01:05:14.593Z,15.12
2018-07-12T01:06:14.611Z,15.19
2018-07-12T01:07:14.684Z,15.17
2018-07-12T01:08:14.564Z,15.11
2018-07-12T01:09:14.580Z,15.13
2018-07-12T01:10:14.532Z,15.13
2018-07-12T01:11:14.544Z,15.21
2018-07-12T01:12:14.576Z,15.15
2018-07-12T01:13:14.500Z,15.20
2018-07-12T01:14:14.542Z,15.08
2018-07-12T01:15:14.569Z,15.17
2018-07-12T01:16:14.494Z,15.11
2018-07-12T01:17:14.458Z,15.17
2018-07-12T01:18:14.439Z,15.17
2018-07-12T01:19:14.431Z,15.11
2018-07-12T01:20:14.422Z,15.17
2018-07-12T01:21:14.407Z,15.17
2018-07-12T01:22:14.424Z,15.17
2018-07-12T01:23:14.385Z,15.23
2018-07-12T01:24:14.373Z,15.11
2018-07-12T01:25:14.363Z,15.17
2018-07-12T01:26:14.352Z,15.23
2018-07-12T01:27:14.334Z,15.20
2018-07-12T01:28:14.349Z,15.20
2018-07-12T01:29:14.309Z,15.20
2018-07-12T01:30:14.300Z,15.27
2018-07-12T01:31:14.293Z,15.30
2018-07-12T01:32:14.284Z,15.23
2018-07-12T01:33:14.287Z,15.27
2018-07-12T01:34:14.258Z,15.31
2018-07-12T01:35:14.242Z,15.20
2018-07-12T01:36:14.330Z,15.31
2018-07-12T01:37:14.226Z,15.28
2018-07-12T01:38:14.232Z,15.30
2018-07-12T01:39:14.202Z,15.28
2018-07-12T01:40:14.191Z,15.17
2018-07-12T01:41:14.171Z,15.09
2018-07-12T01:42:14.159Z,15.20
2018-07-12T01:43:14.176Z,15.09
2018-07-12T01:44:14.136Z,15.09
2018-07-12T01:45:14.128Z,15.17
2018-07-12T01:46:14.119Z,15.05
2018-07-12T01:47:14.104Z,15.01
2018-07-12T01:48:14.121Z,15.09
2018-07-12T01:49:14.082Z,14.91
2018-07-12T01:50:14.073Z,15.02
2018-07-12T01:51:14.062Z,14.91
2018-07-12T01:52:14.045Z,15.03
2018-07-12T01:53:14.066Z,14.91
2018-07-12T01:54:14.028Z,14.81
2018-07-12T01:55:14.014Z,14.81
2018-07-12T01:56:14.000Z,14.74
2018-07-12T01:57:13.985Z,14.72
2018-07-12T01:58:14.013Z,14.74
2018-07-12T01:59:13.963Z,14.72
2018-07-12T02:00:13.954Z,14.64
2018-07-12T02:01:13.951Z,14.67
2018-07-12T02:02:13.933Z,14.64
2018-07-12T02:03:13.917Z,14.61
2018-07-12T02:04:34.904Z,14.53
2018-07-12T02:05:13.900Z,14.53
2018-07-12T02:06:13.886Z,14.56
2018-07-12T02:07:13.874Z,14.53
2018-07-12T02:08:13.865Z,14.52
2018-07-12T02:09:13.876Z,14.56
2018-07-12T02:10:13.840Z,14.43
2018-07-12T02:11:13.823Z,14.50
2018-07-12T02:12:13.812Z,14.44
2018-07-12T02:13:13.808Z,14.44
2018-07-12T02:14:13.797Z,14.53
2018-07-12T02:15:13.806Z,14.44
2018-07-12T02:16:13.772Z,14.49
2018-07-12T02:17:13.752Z,14.46
2018-07-12T02:18:13.744Z,14.56
2018-07-12T02:19:13.736Z,14.65
2018-07-12T02:20:13.746Z,14.60
2018-07-12T02:21:13.713Z,14.67
2018-07-12T02:22:13.701Z,14.54
2018-07-12T02:23:13.686Z,14.56
2018-07-12T02:24:13.679Z,14.49
2018-07-12T02:25:13.689Z,14.61
2018-07-12T02:26:13.659Z,14.46
2018-07-12T02:27:13.642Z,14.52
2018-07-12T02:28:13.628Z,14.47
2018-07-12T02:29:13.622Z,14.49
2018-07-12T02:30:13.634Z,14.44
2018-07-12T02:31:13.596Z,14.47
2018-07-12T02:32:13.595Z,14.46
2018-07-12T02:33:13.570Z,14.50
2018-07-12T02:34:13.558Z,14.35
2018-07-12T02:35:13.590Z,14.44
2018-07-12T02:36:13.575Z,14.47
2018-07-12T02:37:13.526Z,14.52
2018-07-12T02:38:13.524Z,14.42
2018-07-12T02:39:13.501Z,14.53
2018-07-12T02:40:13.485Z,14.49
2018-07-12T02:41:13.479Z,14.60
2018-07-12T02:42:13.488Z,14.47
2018-07-12T02:43:13.456Z,14.44
2018-07-12T02:44:13.447Z,14.56
2018-07-12T02:45:13.433Z,14.60
2018-07-12T02:46:13.420Z,14.60
2018-07-12T02:47:13.428Z,14.67
2018-07-12T02:48:13.397Z,14.61
2018-07-12T02:49:13.391Z,14.64
2018-07-12T02:50:13.375Z,14.69
2018-07-12T02:51:13.361Z,14.72
2018-07-12T02:52:13.386Z,14.80
2018-07-12T02:53:13.344Z,14.81
2018-07-12T02:54:13.333Z,14.65
2018-07-12T02:55:13.317Z,14.80
2018-07-12T02:56:13.307Z,14.72
2018-07-12T02:57:13.292Z,14.81
2018-07-12T02:58:13.335Z,14.81
2018-07-12T02:59:13.266Z,14.86
2018-07-12T03:00:13.252Z,14.88
2018-07-12T03:01:13.253Z,14.81
2018-07-12T03:02:13.232Z,14.81
2018-07-12T03:03:13.256Z,14.84
2018-07-12T03:04:13.213Z,14.84
2018-07-12T03:05:13.194Z,14.83
2018-07-12T03:06:13.184Z,14.80
2018-07-12T03:07:13.170Z,14.72
2018-07-12T03:08:13.167Z,14.72
2018-07-12T03:09:13.170Z,14.67
2018-07-12T03:10:13.141Z,14.74
2018-07-12T03:11:13.127Z,14.67
2018-07-12T03:12:13.113Z,14.57
2018-07-12T03:13:13.102Z,14.56
2018-07-12T03:14:13.136Z,14.54
2018-07-12T03:15:13.083Z,14.56
2018-07-12T03:16:13.069Z,14.47
2018-07-12T03:17:13.094Z,14.65
2018-07-12T03:18:13.048Z,14.43
2018-07-12T03:19:13.059Z,14.44
2018-07-12T03:20:13.027Z,14.50
2018-07-12T03:21:13.011Z,14.28
2018-07-12T03:22:13.002Z,14.38
2018-07-12T03:23:12.994Z,14.34
2018-07-12T03:24:13.000Z,14.28
2018-07-12T03:25:12.969Z,14.24
2018-07-12T03:26:12.962Z,14.21
2018-07-12T03:27:12.945Z,14.28
2018-07-12T03:28:12.935Z,14.29
2018-07-12T03:29:12.944Z,14.27
2018-07-12T03:30:12.908Z,14.17
2018-07-12T03:31:12.901Z,14.10
2018-07-12T03:32:12.887Z,14.13
2018-07-12T03:33:12.872Z,14.10
2018-07-12T03:34:12.889Z,14.06
2018-07-12T03:35:12.846Z,13.99
2018-07-12T03:36:12.835Z,14.04
2018-07-12T03:37:12.828Z,13.98
2018-07-12T03:38:12.821Z,13.98
2018-07-12T03:39:12.824Z,13.92
2018-07-12T03:40:12.797Z,13.91
2018-07-12T03:41:12.777Z,13.79
2018-07-12T03:42:12.770Z,13.87
2018-07-12T03:43:12.763Z,13.81
2018-07-12T03:44:12.774Z,13.81
2018-07-12T03:45:12.734Z,13.79
2018-07-12T03:46:12.722Z,13.79
2018-07-12T03:47:12.713Z,13.71
2018-07-12T03:48:12.700Z,13.71
2018-07-12T03:49:12.691Z,13.65
2018-07-12T03:50:12.703Z,13.62
2018-07-12T03:51:12.664Z,13.69
2018-07-12T03:52:12.657Z,13.61
2018-07-12T03:53:12.642Z,13.69
2018-07-12T03:54:12.633Z,13.69
2018-07-12T03:55:12.650Z,13.74
2018-07-12T03:56:12.605Z,13.74
2018-07-12T03:57:12.595Z,13.79
2018-07-12T03:58:12.589Z,13.76
2018-07-12T03:59:12.576Z,13.79
2018-07-12T04:00:12.561Z,13.76
2018-07-12T04:01:12.578Z,13.70
2018-07-12T04:02:12.535Z,13.79
2018-07-12T04:03:12.531Z,13.79
2018-07-12T04:04:12.517Z,13.77
2018-07-12T04:05:12.503Z,13.77
2018-07-12T04:06:12.519Z,13.80
2018-07-12T04:07:12.476Z,13.83
2018-07-12T04:08:12.467Z,13.88
2018-07-12T04:09:12.459Z,13.79
2018-07-12T04:10:12.444Z,13.91
2018-07-12T04:11:12.464Z,13.91
2018-07-12T04:12:12.429Z,13.98
2018-07-12T04:13:12.412Z,13.91
2018-07-12T04:14:12.401Z,14.04
2018-07-12T04:15:12.387Z,13.95
2018-07-12T04:16:12.371Z,13.98
2018-07-12T04:17:12.388Z,14.13
2018-07-12T04:18:12.359Z,14.06
2018-07-12T04:19:12.335Z,14.07
2018-07-12T04:20:12.329Z,14.07
2018-07-12T04:21:12.319Z,14.09
2018-07-12T04:22:12.331Z,14.12
2018-07-12T04:23:12.300Z,14.07
2018-07-12T04:24:12.286Z,14.06
2018-07-12T04:25:12.270Z,14.19
2018-07-12T04:26:12.262Z,14.21
2018-07-12T04:27:12.253Z,14.16
2018-07-12T04:28:12.255Z,14.21
2018-07-12T04:29:12.231Z,14.17
2018-07-12T04:30:12.217Z,14.20
2018-07-12T04:31:12.204Z,14.29
2018-07-12T04:32:12.196Z,14.20
2018-07-12T04:33:12.206Z,14.42
2018-07-12T04:34:12.162Z,14.46
2018-07-12T04:35:12.159Z,14.35
2018-07-12T04:36:12.145Z,14.44
2018-07-12T04:37:12.132Z,14.39
2018-07-12T04:38:12.155Z,14.50
2018-07-12T04:39:12.106Z,14.38
2018-07-12T04:40:12.095Z,14.37
2018-07-12T04:41:12.109Z,14.35
2018-07-12T04:42:12.079Z,14.47
2018-07-12T04:43:12.059Z,14.42
2018-07-12T04:44:12.079Z,14.34
2018-07-12T04:45:12.041Z,14.50
2018-07-12T04:46:12.024Z,14.50
2018-07-12T04:47:12.022Z,14.46
2018-07-12T04:48:12.025Z,14.54
2018-07-12T04:49:12.022Z,14.54
2018-07-12T04:50:11.999Z,14.60
2018-07-12T04:51:11.972Z,14.61
2018-07-12T04:52:11.957Z,14.64
2018-07-12T04:53:11.955Z,14.62
2018-07-12T04:54:11.928Z,14.71
2018-07-12T04:55:11.999Z,14.62
2018-07-12T04:56:11.999Z,14.61
2018-07-12T04:57:11.897Z,14.64
2018-07-12T04:58:11.932Z,14.68
2018-07-12T04:59:11.880Z,14.72
2018-07-12T05:00:11.890Z,14.78
2018-07-12T05:01:11.855Z,14.72
2018-07-12T05:02:11.846Z,14.75
2018-07-12T05:03:11.824Z,14.84
2018-07-12T05:04:11.820Z,14.72
2018-07-12T05:05:11.801Z,14.81
2018-07-12T05:06:11.821Z,14.90
2018-07-12T05:07:11.781Z,14.83
2018-07-12T05:08:11.813Z,14.93
2018-07-12T05:09:11.767Z,14.90
2018-07-12T05:10:11.745Z,14.93
2018-07-12T05:11:11.760Z,14.93
2018-07-12T05:12:11.748Z,14.83
2018-07-12T05:13:11.714Z,14.78
2018-07-12T05:14:11.701Z,14.75
2018-07-12T05:15:11.691Z,14.91
2018-07-12T05:16:11.747Z,14.84
2018-07-12T05:17:11.667Z,14.84
2018-07-12T05:18:11.937Z,14.88
2018-07-12T05:19:11.663Z,14.93
2018-07-12T05:20:11.633Z,14.91
2018-07-12T05:21:11.625Z,15.05
2018-07-12T05:22:11.631Z,15.06
2018-07-12T05:23:11.598Z,14.99
2018-07-12T05:24:11.593Z,15.11
2018-07-12T05:25:11.576Z,15.11
2018-07-12T05:26:11.564Z,14.99
2018-07-12T05:27:11.575Z,15.12
2018-07-12T05:28:11.543Z,15.17
2018-07-12T05:29:11.527Z,15.08
2018-07-12T05:30:11.513Z,15.11
2018-07-12T05:31:11.511Z,15.05
2018-07-12T05:32:11.498Z,14.94
2018-07-12T05:33:11.482Z,15.02
2018-07-12T05:34:11.475Z,15.08
2018-07-12T05:35:11.456Z,15.05
2018-07-12T05:36:11.446Z,15.12
2018-07-12T05:37:11.458Z,15.05
2018-07-12T05:38:11.431Z,15.09
2018-07-12T05:39:11.458Z,15.17
2018-07-12T05:40:11.400Z,15.15
2018-07-12T05:41:11.400Z,15.11
2018-07-12T05:42:11.413Z,15.23
2018-07-12T05:43:11.371Z,15.21
2018-07-12T05:44:11.361Z,15.28
2018-07-12T05:45:11.344Z,15.20
2018-07-12T05:46:11.342Z,15.23
2018-07-12T05:47:11.320Z,15.30
2018-07-12T05:48:11.333Z,15.23
2018-07-12T05:49:11.305Z,15.33
2018-07-12T05:50:11.286Z,15.28
2018-07-12T05:51:11.282Z,15.35
2018-07-12T06:57:21.131Z,16.23
2018-07-12T06:58:21.096Z,16.25
2018-07-12T06:59:21.092Z,16.40
2018-07-12T07:00:21.071Z,16.41
2018-07-12T07:01:21.062Z,16.34
2018-07-12T07:02:21.073Z,16.33
2018-07-12T07:03:21.042Z,16.50
2018-07-12T07:04:21.028Z,16.53
2018-07-12T07:05:21.020Z,16.53
2018-07-12T07:06:21.002Z,16.68
2018-07-12T07:07:21.028Z,16.68
2018-07-12T07:08:20.981Z,16.77
2018-07-12T07:09:20.975Z,16.77
2018-07-12T07:10:20.957Z,16.83
2018-07-12T07:11:20.948Z,16.90
2018-07-12T07:12:20.939Z,16.99
2018-07-12T07:13:20.954Z,16.99
2018-07-12T07:14:20.913Z,17.10
2018-07-12T07:15:20.904Z,17.11
2018-07-12T07:16:20.888Z,17.14
2018-07-12T07:17:20.883Z,17.15
2018-07-12T07:18:20.871Z,17.22
2018-07-12T07:19:20.855Z,17.20
2018-07-12T07:20:20.839Z,17.26
2018-07-12T07:21:20.838Z,17.26
2018-07-12T07:22:20.825Z,17.25
2018-07-12T07:23:20.838Z,17.20
2018-07-12T07:24:20.798Z,17.23
2018-07-12T07:25:20.789Z,17.20
2018-07-12T07:26:20.850Z,17.17
2018-07-12T07:27:20.757Z,17.15
2018-07-12T07:28:20.756Z,17.28
2018-07-12T07:29:20.759Z,17.25
2018-07-12T07:30:20.723Z,17.20
2018-07-12T07:31:20.720Z,17.23
2018-07-12T07:32:20.731Z,17.26
2018-07-12T07:33:20.698Z,17.28
2018-07-12T07:34:20.710Z,17.36
2018-07-12T07:35:20.666Z,17.35
2018-07-12T07:36:20.657Z,17.40
2018-07-12T07:37:20.649Z,17.36
2018-07-12T07:38:20.637Z,17.38
2018-07-12T07:39:20.645Z,17.30
2018-07-12T07:40:20.610Z,17.44
2018-07-12T07:41:20.605Z,17.44
2018-07-12T07:42:20.585Z,17.50
2018-07-12T07:43:20.579Z,17.48
2018-07-12T07:44:20.592Z,17.62
2018-07-12T07:45:20.562Z,17.48
2018-07-12T07:46:20.541Z,17.50
2018-07-12T07:47:20.532Z,17.59
2018-07-12T07:48:20.518Z,17.47
2018-07-12T07:49:20.547Z,17.53
2018-07-12T07:50:20.503Z,17.63
2018-07-12T07:51:20.481Z,17.62
2018-07-12T07:52:20.477Z,17.62
2018-07-12T07:53:20.456Z,17.59
2018-07-12T07:54:20.444Z,17.57
2018-07-12T07:55:20.470Z,17.69
2018-07-12T07:56:20.424Z,17.81
2018-07-12T07:57:20.423Z,17.84
2018-07-12T07:58:20.399Z,17.84
2018-07-12T07:59:20.395Z,17.94
2018-07-12T08:00:20.401Z,18.00
2018-07-12T08:01:20.372Z,18.02
2018-07-12T08:02:20.366Z,18.03
2018-07-12T08:03:20.346Z,18.12
2018-07-12T08:04:20.339Z,18.17
2018-07-12T08:05:20.353Z,18.13
2018-07-12T08:06:20.314Z,18.17
2018-07-12T08:07:20.297Z,18.13
2018-07-12T08:08:20.283Z,18.18
2018-07-12T08:09:20.281Z,18.24
2018-07-12T08:10:20.266Z,18.24
2018-07-12T08:11:20.253Z,18.33
2018-07-12T08:12:20.249Z,18.36
2018-07-12T08:13:20.223Z,18.42
2018-07-12T08:14:20.226Z,18.43
2018-07-12T08:15:20.228Z,18.43
2018-07-12T08:16:20.323Z,18.54
2018-07-12T08:17:20.180Z,18.68
2018-07-12T08:18:20.170Z,18.62
2018-07-12T08:19:20.166Z,18.68
2018-07-12T08:20:20.184Z,18.79
2018-07-12T08:21:20.137Z,18.86
2018-07-12T08:22:20.132Z,18.86
2018-07-12T08:23:20.111Z,19.10
2018-07-12T08:24:20.111Z,19.15
2018-07-12T08:25:20.089Z,19.25
2018-07-12T08:26:20.105Z,19.43
2018-07-12T08:27:20.069Z,19.51
2018-07-12T08:28:20.068Z,19.72
2018-07-12T08:29:20.045Z,19.90
2018-07-12T08:30:20.031Z,20.10
2018-07-12T08:31:20.171Z,20.35
2018-07-12T08:32:20.008Z,20.54
2018-07-12T08:33:20.012Z,20.74
2018-07-12T08:34:19.990Z,20.81
2018-07-12T08:35:19.980Z,20.81
2018-07-12T08:36:19.999Z,20.87
2018-07-12T08:37:19.962Z,20.87
2018-07-12T08:38:19.947Z,20.95
2018-07-12T08:39:19.958Z,20.90
2018-07-12T08:40:19.923Z,21.01
2018-07-12T08:41:19.946Z,21.09
2018-07-12T08:42:19.919Z,21.19
2018-07-12T08:43:19.983Z,21.32
2018-07-12T08:44:19.882Z,21.46
2018-07-12T08:45:19.874Z,21.61
2018-07-12T08:46:19.893Z,21.75
2018-07-12T08:47:19.870Z,22.06
2018-07-12T08:48:19.865Z,22.25
2018-07-12T08:49:19.819Z,22.54
2018-07-12T08:50:19.870Z,22.64
2018-07-12T08:51:19.838Z,22.74
2018-07-12T08:52:19.792Z,22.92
2018-07-12T08:53:19.784Z,22.96
2018-07-12T08:54:19.767Z,22.89
2018-07-12T08:55:19.759Z,22.57
2018-07-12T08:56:19.744Z,22.54
2018-07-12T08:57:19.769Z,22.37
2018-07-12T08:58:19.727Z,22.25
2018-07-12T08:59:19.711Z,22.23
2018-07-12T09:00:19.705Z,22.19
2018-07-12T09:01:19.689Z,22.27
2018-07-12T09:02:19.676Z,22.34
2018-07-12T09:03:19.698Z,22.43
2018-07-12T09:04:19.656Z,22.56
2018-07-12T09:05:19.652Z,22.56
2018-07-12T09:06:19.640Z,22.83
2018-07-12T09:07:19.620Z,22.90
2018-07-12T09:08:19.682Z,22.99
2018-07-12T09:09:19.604Z,23.05
2018-07-12T09:10:19.597Z,23.22
2018-07-12T09:11:19.580Z,23.46
2018-07-12T09:12:19.573Z,23.60
2018-07-12T09:13:19.586Z,23.64
2018-07-12T09:14:19.545Z,23.76
2018-07-12T09:15:19.539Z,23.90
2018-07-12T09:16:19.524Z,24.08
2018-07-12T09:17:19.518Z,24.38
2018-07-12T09:18:19.508Z,24.56
2018-07-12T09:19:19.516Z,24.47
2018-07-12T09:20:19.489Z,24.57
2018-07-12T09:21:19.469Z,24.54
2018-07-12T09:22:19.458Z,24.59
2018-07-12T09:23:19.452Z,24.60
2018-07-12T09:24:19.472Z,24.60
2018-07-12T09:25:19.480Z,24.56
2018-07-12T09:26:19.419Z,24.63
2018-07-12T09:27:19.409Z,24.59
2018-07-12T09:28:19.397Z,24.73
2018-07-12T09:29:19.410Z,24.88
2018-07-12T09:30:19.396Z,25.09
2018-07-12T09:31:19.373Z,25.07
2018-07-12T09:32:19.351Z,25.16
2018-07-12T09:33:19.348Z,25.28
2018-07-12T09:34:19.330Z,25.35
2018-07-12T09:35:19.361Z,25.56
2018-07-12T09:36:19.309Z,25.69
2018-07-12T09:37:19.306Z,25.67
2018-07-12T09:38:19.292Z,25.83
2018-07-12T09:39:19.284Z,26.15
2018-07-12T09:40:19.271Z,26.29
2018-07-12T09:41:19.287Z,26.40
2018-07-12T09:42:19.248Z,26.39
2018-07-12T09:43:19.256Z,26.21
2018-07-12T09:44:19.232Z,26.08
2018-07-12T09:45:19.218Z,26.09
2018-07-12T09:46:19.233Z,26.08
2018-07-12T09:47:19.224Z,26.18
2018-07-12T09:48:19.195Z,26.36
2018-07-12T09:49:19.259Z,26.44
2018-07-12T09:50:19.165Z,26.65
2018-07-12T09:51:19.181Z,26.92
2018-07-12T09:52:19.154Z,27.04
2018-07-12T09:53:19.134Z,27.20
2018-07-12T09:54:19.125Z,27.24
2018-07-12T09:55:19.124Z,27.50
2018-07-12T09:56:19.233Z,27.61
2018-07-12T09:57:19.098Z,27.76
2018-07-12T09:58:19.096Z,27.79
2018-07-12T09:59:19.084Z,27.80
2018-07-12T10:00:19.068Z,27.86
2018-07-12T10:01:19.093Z,27.73
2018-07-12T10:02:19.058Z,27.53
2018-07-12T10:03:19.037Z,27.67
2018-07-12T10:04:19.023Z,27.86
2018-07-12T10:05:19.023Z,27.98
2018-07-12T10:06:19.030Z,28.01
2018-07-12T10:07:19.023Z,27.99
2018-07-12T10:08:18.988Z,28.01
2018-07-12T10:09:18.976Z,27.89
2018-07-12T10:10:18.971Z,27.82
2018-07-12T10:11:18.982Z,27.79
2018-07-12T10:12:18.949Z,27.74
2018-07-12T10:13:18.939Z,27.73
2018-07-12T10:14:18.926Z,27.73
2018-07-12T10:15:18.909Z,27.77
2018-07-12T10:16:18.927Z,27.79
2018-07-12T10:17:18.895Z,27.58
2018-07-12T10:18:18.885Z,27.73
2018-07-12T10:19:18.868Z,27.84
2018-07-12T10:20:18.858Z,27.95
2018-07-12T10:21:18.851Z,28.06
2018-07-12T10:22:18.860Z,28.19
2018-07-12T10:23:18.824Z,28.23
2018-07-12T10:24:18.816Z,28.17
2018-07-12T10:25:18.804Z,28.09
2018-07-12T10:26:18.793Z,27.84
2018-07-12T10:27:18.816Z,27.64
2018-07-12T10:28:18.778Z,27.59
2018-07-12T10:29:18.769Z,27.46
2018-07-12T10:30:18.760Z,27.51
2018-07-12T10:31:18.740Z,27.39
2018-07-12T10:32:18.762Z,27.53
2018-07-12T10:33:18.725Z,27.50
2018-07-12T10:34:18.713Z,27.51
2018-07-12T10:35:18.699Z,27.48
2018-07-12T10:36:18.691Z,27.57
2018-07-12T10:37:18.678Z,27.69
2018-07-12T10:38:18.690Z,27.77
2018-07-12T10:39:18.658Z,27.85
2018-07-12T10:40:18.652Z,27.94
2018-07-12T10:41:18.643Z,28.06
2018-07-12T10:42:18.626Z,28.17
2018-07-12T10:43:18.642Z,28.32
2018-07-12T10:44:18.605Z,28.38
2018-07-12T10:45:18.590Z,28.43
2018-07-12T10:46:18.580Z,28.41
2018-07-12T10:47:18.578Z,28.41
2018-07-12T10:48:18.581Z,28.38
2018-07-12T10:49:18.558Z,28.19
2018-07-12T10:50:18.541Z,28.14
2018-07-12T10:51:18.533Z,27.95
2018-07-12T10:52:18.520Z,27.86
2018-07-12T10:53:18.542Z,27.69
2018-07-12T10:54:18.499Z,27.51
2018-07-12T10:55:18.483Z,27.35
2018-07-12T10:56:18.480Z,27.21
2018-07-12T10:57:18.463Z,27.09
2018-07-12T10:58:18.449Z,26.91
2018-07-12T10:59:18.473Z,26.87
2018-07-12T11:00:18.433Z,26.89
2018-07-12T11:01:18.429Z,26.95
2018-07-12T11:02:18.412Z,26.99
2018-07-12T11:03:18.406Z,27.06
2018-07-12T11:04:18.419Z,27.31
2018-07-12T11:05:18.377Z,27.50
2018-07-12T11:06:18.362Z,27.84
2018-07-12T11:07:18.362Z,28.11
2018-07-12T11:08:18.348Z,28.47
2018-07-12T11:09:18.369Z,28.68
2018-07-12T11:10:18.331Z,29.06
2018-07-12T11:11:18.318Z,29.18
2018-07-12T11:12:18.308Z,29.45
2018-07-12T11:13:18.303Z,29.56
2018-07-12T11:14:18.284Z,29.62
2018-07-12T11:15:18.295Z,29.60
2018-07-12T11:16:18.262Z,29.53
2018-07-12T11:17:18.261Z,29.56
2018-07-12T11:18:18.238Z,29.31
2018-07-12T11:19:18.236Z,29.20
2018-07-12T11:20:18.242Z,29.20
2018-07-12T11:21:18.365Z,29.13
2018-07-12T11:22:18.200Z,29.10
2018-07-12T11:23:18.191Z,29.13
2018-07-12T11:24:18.183Z,29.22
2018-07-12T11:25:18.197Z,29.19
2018-07-12T11:26:18.164Z,29.33
2018-07-12T11:27:18.147Z,29.41
2018-07-12T11:28:18.138Z,29.50
2018-07-12T11:29:18.127Z,29.71
2018-07-12T11:30:18.166Z,29.99
2018-07-12T11:31:18.111Z,30.15
2018-07-12T11:32:18.100Z,30.38
2018-07-12T11:33:18.090Z,30.62
2018-07-12T11:34:18.078Z,30.84
2018-07-12T11:35:18.070Z,31.01
2018-07-12T11:36:18.105Z,31.23
2018-07-12T11:37:18.052Z,31.31
2018-07-12T11:38:18.035Z,31.31
2018-07-12T11:39:18.045Z,31.39
2018-07-12T11:40:18.017Z,31.58
2018-07-12T11:41:18.043Z,31.73
2018-07-12T11:42:18.001Z,31.85
2018-07-12T11:43:17.992Z,31.87
2018-07-12T11:44:17.981Z,31.84
2018-07-12T11:45:17.979Z,31.79
2018-07-12T11:46:17.987Z,31.58
2018-07-12T11:47:17.955Z,31.48
2018-07-12T11:48:17.941Z,31.28
2018-07-12T11:49:17.928Z,31.23
2018-07-12T11:50:17.918Z,30.96
2018-07-12T11:51:17.941Z,30.72
2018-07-12T11:52:17.905Z,30.57
2018-07-12T11:53:17.891Z,30.34
2018-07-12T11:54:17.880Z,30.29
2018-07-12T11:55:17.873Z,30.23
2018-07-12T11:56:17.898Z,30.26
2018-07-12T11:57:17.845Z,30.43
2018-07-12T11:58:17.838Z,30.50
2018-07-12T11:59:17.825Z,30.76
2018-07-12T12:00:17.823Z,30.99
2018-07-12T12:01:17.854Z,31.21
2018-07-12T12:02:17.821Z,31.39
2018-07-12T12:03:17.793Z,31.62
2018-07-12T12:04:17.783Z,31.80
2018-07-12T12:05:17.783Z,32.10
2018-07-12T12:06:17.763Z,32.18
2018-07-12T12:07:17.774Z,32.17
2018-07-12T12:08:17.747Z,32.42
2018-07-12T12:09:17.728Z,32.55
2018-07-12T12:10:17.718Z,32.64
2018-07-12T12:11:17.717Z,32.61
2018-07-12T12:12:17.736Z,32.51
2018-07-12T12:13:17.690Z,32.33
2018-07-12T12:14:17.676Z,32.17
2018-07-12T12:15:17.669Z,32.13
2018-07-12T12:16:17.656Z,32.11
2018-07-12T12:17:17.656Z,32.06
2018-07-12T12:18:17.669Z,32.02
2018-07-12T12:19:17.630Z,31.92
2018-07-12T12:20:17.627Z,31.85
2018-07-12T12:21:17.609Z,31.80
2018-07-12T12:22:17.600Z,31.75
2018-07-12T12:23:17.606Z,31.54
2018-07-12T12:24:17.573Z,31.40
2018-07-12T12:25:17.580Z,31.26
2018-07-12T12:26:17.564Z,31.33
2018-07-12T12:27:17.544Z,31.36
2018-07-12T12:28:17.535Z,31.46
2018-07-12T12:29:17.562Z,31.55
2018-07-12T12:30:17.522Z,31.60
2018-07-12T12:31:17.509Z,31.68
2018-07-12T12:32:17.493Z,31.84
2018-07-12T12:33:17.488Z,31.92
2018-07-12T12:34:17.471Z,32.10
2018-07-12T12:35:17.494Z,32.25
2018-07-12T12:36:17.458Z,32.36
2018-07-12T12:37:17.450Z,32.47
2018-07-12T12:38:17.438Z,32.43
2018-07-12T12:39:17.428Z,32.48
2018-07-12T12:40:17.449Z,32.57
2018-07-12T12:41:17.402Z,32.66
2018-07-12T12:42:17.400Z,32.80
2018-07-12T12:43:17.387Z,32.98
2018-07-12T12:44:17.375Z,33.06
2018-07-12T12:45:17.409Z,33.29
2018-07-12T12:46:17.355Z,33.46
2018-07-12T12:47:17.356Z,33.57
2018-07-12T12:48:17.341Z,33.60
2018-07-12T12:49:17.334Z,33.53
2018-07-12T12:50:17.324Z,33.43
2018-07-12T12:51:17.335Z,33.45
2018-07-12T12:52:17.300Z,33.39
2018-07-12T12:53:17.292Z,33.45
2018-07-12T12:54:17.276Z,33.63
2018-07-12T12:55:17.276Z,33.73
2018-07-12T12:56:17.282Z,33.89
2018-07-12T12:57:17.256Z,34.08
2018-07-12T12:58:17.249Z,34.34
2018-07-12T12:59:17.229Z,34.45
2018-07-12T13:00:17.231Z,34.66
2018-07-12T13:01:17.252Z,34.81
2018-07-12T13:02:17.218Z,35.03
2018-07-12T13:03:17.191Z,35.06
2018-07-12T13:04:17.185Z,34.81
2018-07-12T13:05:17.172Z,34.56
2018-07-12T13:06:17.166Z,34.20
2018-07-12T13:07:17.179Z,34.16
2018-07-12T13:08:17.150Z,34.07
2018-07-12T13:09:17.135Z,34.07
2018-07-12T13:10:17.127Z,34.19
2018-07-12T13:11:17.120Z,34.14
2018-07-12T13:12:17.139Z,34.29
2018-07-12T13:13:17.094Z,34.34
2018-07-12T13:14:17.093Z,34.32
2018-07-12T13:15:17.085Z,34.45
2018-07-12T13:16:17.072Z,34.63
2018-07-12T13:17:17.094Z,34.79
2018-07-12T13:18:17.056Z,34.88
2018-07-12T13:19:17.040Z,34.81
2018-07-12T13:20:17.027Z,34.98
2018-07-12T13:21:17.022Z,35.01
2018-07-12T13:22:17.020Z,34.94
2018-07-12T13:23:17.030Z,34.89
2018-07-12T13:24:16.993Z,34.69
2018-07-12T13:25:16.987Z,34.44
2018-07-12T13:26:16.979Z,34.19
2018-07-12T13:27:16.967Z,33.89
2018-07-12T13:28:16.973Z,33.63
2018-07-12T13:29:16.949Z,33.22
2018-07-12T13:30:16.938Z,32.80
2018-07-12T13:31:16.924Z,32.43
2018-07-12T13:32:16.912Z,32.17
2018-07-12T13:33:16.926Z,31.93
2018-07-12T13:34:16.890Z,31.70
2018-07-12T13:35:16.879Z,31.60
2018-07-12T13:36:16.879Z,31.65
2018-07-12T13:37:16.862Z,31.64
2018-07-12T13:38:16.877Z,31.42
2018-07-12T13:39:16.838Z,31.53
2018-07-12T13:40:16.838Z,31.50
2018-07-12T13:41:16.820Z,31.57
2018-07-12T13:42:16.807Z,31.75
2018-07-12T13:43:16.834Z,31.91
2018-07-12T13:44:16.791Z,32.07
2018-07-12T13:45:16.773Z,32.24
2018-07-12T13:46:16.771Z,32.40
2018-07-12T13:47:16.760Z,32.64
2018-07-12T13:48:16.742Z,32.61
2018-07-12T13:49:16.773Z,32.47
2018-07-12T13:50:16.730Z,32.57
2018-07-12T13:51:16.717Z,32.66
2018-07-12T13:52:16.747Z,32.81
2018-07-12T13:53:16.690Z,33.11
2018-07-12T13:54:16.688Z,33.37
2018-07-12T13:55:16.697Z,33.48
2018-07-12T13:56:16.673Z,33.70
2018-07-12T13:57:17.560Z,34.01